Smithfield, OH (43948)

8:06 AM EDT on September 30, 2016 (GMT -0400)
County Road 15 | | Change Station

Elev 1184 ft 40.24 °N, 80.74 °W | Updated 13 minutes ago

Light Rain
Light Rain
57.4 °F
Feels Like 57.4 °F
N
5.6
Wind Variable Wind from NE
Gusts 10.6 mph

Today
High -- | Low -- °F
--% Chance of Precip.
Yesterday
High -- | Low -- °F
Precip. -- in
Pressure 30.14 in
Visibility 10.0 miles
Clouds Few 700 ft
Overcast 7000 ft
Dew Point 55 °F
Humidity 92%
Rainfall 0.32 in
Snow Depth Not available.
7:19 AM 7:06 PM
Waning Crescent, 0% visible
METAR KHLG 301153Z 09008KT 10SM -RA FEW007 OVC070 14/12 A3014 RMK AO2 SLP207 P0002 60036 70156 T01440122 10161 20144 51014
Pressure 30.14 in
Visibility 10.0 miles
Clouds Few 700 ft
Overcast 7000 ft
Dew Point 55 °F
Humidity 92%
Rainfall 0.32 in
Snow Depth Not available.
7:19 AM 7:06 PM
Waning Crescent, 0% visible
METAR KHLG 301153Z 09008KT 10SM -RA FEW007 OVC070 14/12 A3014 RMK AO2 SLP207 P0002 60036 70156 T01440122 10161 20144 51014

10-Day Weather Forecast

Almanac

Astronomy

Sep. 30, 2016 Rise Set
Actual Time
Civil Twilight
Nautical Twilight
Astronomical Twilight
Moon
Length of Visible Light
Length of Day
Tomorrow will be .
, % of the Moon is Illuminated

Today's Extremes

State Highs State Lows

Community

WunderPhotos

Upload Photos

1,942,706 photos uploaded!

WunderBlog® & News

Nearby

Air Quality

  Air Quality AQ Index Pollutant
Not available.

Snow Depth

Station Depth Elevation

Earthquake Activity

City Distance Mag. Time & Date
Minimum magnitude displayed is 2.5.

Coastal Water Temperatures

Place Temperature

Stations

Nearby Weather Stations

Station Location Temp. Windchill Dew Point Humidity Wind Precip. Elev Updated Type
                   

Watches & Warnings

There are currently no watches in effect.